Terminal Aerodrome Forecast
Issued by NWS

Home | Current Version | Previous Version | Text Only | Print | Product List | Glossary On
Versions: 1 2 3 4 5 6 7 8 9 10 11 12 13 14
000
FTUS42 KGSP 051124
TAFAND
TAF
KAND 051124Z 0512/0612 00000KT P6SM FEW150 BKN250
     FM051600 22006KT P6SM SCT060 BKN250
     FM052100 22008KT P6SM BKN070 PROB30 0523/0603 4SM TSRA BKN040CB
     FM060300 23005KT P6SM BKN080=

USA.gov is the U.S. government's official web portal to all federal, state and local government web resources and services.